createdAt,value
2023-05-09T00:00:13.717Z,13.11
2023-05-09T00:02:46.039Z,12.92
2023-05-09T00:05:13.186Z,13.08
2023-05-09T00:07:39.958Z,12.87
2023-05-09T00:10:07.023Z,12.56
2023-05-09T00:12:33.638Z,12.55
2023-05-09T00:15:00.277Z,12.47
2023-05-09T00:17:28.585Z,12.87
2023-05-09T00:19:55.521Z,12.86
2023-05-09T00:22:22.308Z,12.93
2023-05-09T00:24:49.475Z,12.84
2023-05-09T00:27:16.556Z,12.81
2023-05-09T00:29:43.561Z,12.59
2023-05-09T00:32:10.900Z,12.46
2023-05-09T00:34:38.045Z,12.32
2023-05-09T00:37:04.634Z,12.50
2023-05-09T00:39:31.296Z,12.93
2023-05-09T00:41:57.998Z,13.02
2023-05-09T00:44:24.648Z,12.85
2023-05-09T00:46:51.375Z,12.92
2023-05-09T00:49:18.034Z,12.98
2023-05-09T00:51:44.646Z,12.96
2023-05-09T00:54:12.075Z,12.93
2023-05-09T00:56:39.300Z,12.86
2023-05-09T00:59:06.559Z,12.96
2023-05-09T01:01:33.282Z,12.81
2023-05-09T01:04:00.238Z,12.59
2023-05-09T01:06:52.107Z,12.62
2023-05-09T01:09:42.935Z,12.54
2023-05-09T01:12:29.400Z,12.34
2023-05-09T01:15:17.815Z,12.37
2023-05-09T01:17:51.903Z,12.30
2023-05-09T01:20:39.988Z,12.40
2023-05-09T01:23:13.273Z,12.46
2023-05-09T01:26:03.090Z,12.45
2023-05-09T01:29:17.843Z,12.32
2023-05-09T01:31:45.690Z,12.17
2023-05-09T01:34:15.488Z,12.07
2023-05-09T01:36:43.537Z,12.28
2023-05-09T01:39:14.124Z,12.23
2023-05-09T01:41:41.026Z,12.10
2023-05-09T01:44:11.555Z,11.99
2023-05-09T01:46:38.355Z,11.98
2023-05-09T01:49:07.476Z,12.10
2023-05-09T01:51:35.158Z,12.00
2023-05-09T01:54:01.997Z,11.96
2023-05-09T01:56:29.183Z,11.89
2023-05-09T01:58:56.589Z,11.94
2023-05-09T02:01:24.252Z,12.03
2023-05-09T02:03:54.733Z,11.98
2023-05-09T02:06:23.509Z,11.85
2023-05-09T02:08:51.053Z,11.77
2023-05-09T02:11:17.721Z,12.01
2023-05-09T02:13:44.399Z,12.01
2023-05-09T02:16:12.166Z,11.91
2023-05-09T02:18:38.975Z,11.90
2023-05-09T02:21:06.220Z,11.96
2023-05-09T02:23:32.916Z,11.90
2023-05-09T02:25:59.739Z,11.88
2023-05-09T02:28:27.573Z,11.90
2023-05-09T02:30:55.060Z,12.05
2023-05-09T02:33:22.300Z,12.04
2023-05-09T02:35:49.444Z,12.02
2023-05-09T02:38:16.125Z,11.92
2023-05-09T02:40:43.896Z,11.92
2023-05-09T02:43:10.791Z,12.04
2023-05-09T02:45:37.477Z,11.93
2023-05-09T02:48:06.852Z,11.89
2023-05-09T02:50:35.030Z,11.81
2023-05-09T02:53:01.759Z,11.82
2023-05-09T02:55:28.551Z,11.81
2023-05-09T02:58:09.349Z,11.81
2023-05-09T03:00:39.376Z,11.82
2023-05-09T03:03:06.732Z,11.80
2023-05-09T03:05:33.513Z,11.89
2023-05-09T03:08:00.145Z,12.09
2023-05-09T03:10:26.799Z,11.93
2023-05-09T03:12:53.503Z,11.80
2023-05-09T03:15:22.089Z,11.77
2023-05-09T03:17:49.064Z,11.76
2023-05-09T03:20:15.925Z,11.80
2023-05-09T03:22:42.676Z,11.90
2023-05-09T03:25:11.467Z,11.99
2023-05-09T03:27:38.715Z,12.04
2023-05-09T03:30:09.303Z,11.84
2023-05-09T03:32:36.005Z,11.85
2023-05-09T03:35:02.746Z,11.80
2023-05-09T03:37:29.999Z,11.74
2023-05-09T03:39:59.905Z,11.66
2023-05-09T03:42:27.278Z,11.53
2023-05-09T03:44:58.030Z,11.65
2023-05-09T03:47:24.700Z,11.82
2023-05-09T03:49:51.445Z,12.12
2023-05-09T03:52:21.018Z,12.02
2023-05-09T03:54:48.545Z,12.07
2023-05-09T03:57:17.574Z,12.14
2023-05-09T03:59:45.999Z,12.07
2023-05-09T04:02:13.665Z,12.05
2023-05-09T04:04:40.454Z,11.99
2023-05-09T04:07:08.063Z,12.00
2023-05-09T04:09:35.403Z,12.07
2023-05-09T04:12:04.403Z,12.03
2023-05-09T04:14:32.210Z,12.18
2023-05-09T04:16:59.173Z,12.14
2023-05-09T04:19:25.891Z,12.29
2023-05-09T04:21:52.603Z,12.42
2023-05-09T04:24:29.215Z,12.43
2023-05-09T04:26:55.877Z,12.55
2023-05-09T04:29:26.224Z,12.86
2023-05-09T04:31:59.401Z,13.52
2023-05-09T04:34:27.691Z,14.24
2023-05-09T04:36:55.774Z,14.63
2023-05-09T04:39:27.214Z,14.73
2023-05-09T04:42:02.696Z,14.87
2023-05-09T04:44:29.353Z,14.72
2023-05-09T04:46:59.279Z,14.52
2023-05-09T04:49:25.847Z,14.47
2023-05-09T04:51:52.580Z,14.83
2023-05-09T04:54:19.174Z,15.22
2023-05-09T04:56:47.405Z,15.66
2023-05-09T04:59:18.218Z,15.91
2023-05-09T05:01:47.378Z,16.41
2023-05-09T05:04:14.402Z,16.29
2023-05-09T05:06:50.070Z,15.55
2023-05-09T05:09:17.003Z,14.89
2023-05-09T05:11:57.110Z,14.98
2023-05-09T05:14:25.500Z,14.29
2023-05-09T05:16:52.666Z,14.25
2023-05-09T05:19:19.370Z,14.22
2023-05-09T05:21:49.109Z,14.02
2023-05-09T05:24:15.935Z,14.12
2023-05-09T05:26:43.323Z,14.13
2023-05-09T05:29:10.734Z,13.93
2023-05-09T05:31:37.510Z,13.78
2023-05-09T05:34:04.188Z,13.85
2023-05-09T05:36:32.362Z,13.86
2023-05-09T05:39:03.023Z,13.88
2023-05-09T05:41:38.903Z,13.90
2023-05-09T05:44:07.582Z,13.81
2023-05-09T05:46:35.048Z,13.83
2023-05-09T05:49:07.888Z,13.68
2023-05-09T05:51:34.874Z,13.73
2023-05-09T05:54:03.177Z,13.76
2023-05-09T05:56:34.614Z,13.86
2023-05-09T05:59:01.753Z,13.75
2023-05-09T06:01:31.532Z,13.83
2023-05-09T06:04:01.689Z,13.86
2023-05-09T06:06:31.273Z,13.90
2023-05-09T06:09:06.244Z,13.86
2023-05-09T06:11:32.909Z,13.99
2023-05-09T06:13:59.842Z,14.19
2023-05-09T06:16:30.412Z,14.37
2023-05-09T06:18:57.133Z,14.51
2023-05-09T06:21:23.817Z,14.54
2023-05-09T06:24:08.524Z,14.62
2023-05-09T06:26:42.892Z,14.79
2023-05-09T06:29:09.928Z,14.85
2023-05-09T06:31:39.175Z,14.96
2023-05-09T06:34:06.169Z,14.93
2023-05-09T06:36:33.570Z,14.95
2023-05-09T06:39:00.555Z,15.24
2023-05-09T06:41:27.517Z,15.27
2023-05-09T06:43:54.466Z,15.34
2023-05-09T06:46:32.973Z,15.24
2023-05-09T06:49:01.789Z,15.66
2023-05-09T06:51:28.960Z,15.72
2023-05-09T06:54:02.693Z,15.74
2023-05-09T06:56:32.396Z,15.95
2023-05-09T06:58:59.226Z,16.11
2023-05-09T07:01:26.052Z,15.97
2023-05-09T07:03:52.724Z,15.74
2023-05-09T07:06:22.133Z,15.93
2023-05-09T07:08:48.811Z,16.08
2023-05-09T07:11:16.297Z,16.66
2023-05-09T07:13:42.969Z,16.57
2023-05-09T07:16:09.696Z,17.84
2023-05-09T07:18:42.111Z,18.01
2023-05-09T07:21:09.087Z,18.02
2023-05-09T07:23:36.072Z,18.45
2023-05-09T07:26:02.854Z,18.53
2023-05-09T07:28:29.608Z,18.69
2023-05-09T07:30:58.738Z,18.46
2023-05-09T07:33:25.507Z,18.27
2023-05-09T07:35:53.093Z,18.75
2023-05-09T07:38:19.763Z,18.66
2023-05-09T07:40:46.415Z,18.94
2023-05-09T07:43:19.439Z,19.30
2023-05-09T07:45:47.145Z,19.28
2023-05-09T07:48:13.850Z,19.51
2023-05-09T07:50:46.765Z,19.47
2023-05-09T07:53:13.426Z,19.00
2023-05-09T07:55:44.888Z,19.19
2023-05-09T08:01:06.856Z,19.28
2023-05-09T08:03:33.703Z,19.37
2023-05-09T08:06:00.632Z,19.18
2023-05-09T08:08:39.091Z,19.25
2023-05-09T08:11:06.292Z,18.66
2023-05-09T08:13:33.052Z,18.78
2023-05-09T08:16:05.881Z,18.77
2023-05-09T08:18:32.660Z,18.93
2023-05-09T08:20:59.770Z,18.70
2023-05-09T08:23:37.411Z,18.55
2023-05-09T08:26:04.211Z,18.46
2023-05-09T08:28:30.873Z,17.99
2023-05-09T08:30:58.061Z,17.77
2023-05-09T08:33:33.715Z,18.01
2023-05-09T08:36:01.422Z,17.87
2023-05-09T08:38:28.715Z,18.03
2023-05-09T08:41:02.152Z,17.94
2023-05-09T08:43:29.814Z,18.20
2023-05-09T08:46:08.010Z,18.02
2023-05-09T08:48:37.677Z,18.00
2023-05-09T08:51:12.145Z,18.21
2023-05-09T08:53:42.091Z,18.13
2023-05-09T08:56:08.907Z,18.06
2023-05-09T08:58:35.873Z,18.18
2023-05-09T09:01:11.245Z,18.36
2023-05-09T09:03:39.538Z,18.59
2023-05-09T09:06:07.811Z,18.65
2023-05-09T09:08:45.195Z,18.80
2023-05-09T09:11:13.751Z,18.73
2023-05-09T09:13:43.556Z,18.76
2023-05-09T09:16:22.869Z,19.19
2023-05-09T09:19:20.364Z,19.16
2023-05-09T09:21:47.558Z,18.97
2023-05-09T09:24:14.837Z,19.00
2023-05-09T09:26:49.184Z,18.93
2023-05-09T09:29:17.491Z,19.19
2023-05-09T09:31:57.239Z,19.49
2023-05-09T09:34:24.059Z,19.57
2023-05-09T09:36:51.030Z,19.28
2023-05-09T09:39:27.892Z,19.44
2023-05-09T09:41:54.587Z,19.22
2023-05-09T09:44:23.592Z,19.59
2023-05-09T09:46:54.197Z,19.30
2023-05-09T09:49:26.918Z,19.58
2023-05-09T09:51:58.008Z,19.63
2023-05-09T09:54:28.255Z,19.46
2023-05-09T09:56:55.375Z,19.80
2023-05-09T09:59:26.730Z,20.05
2023-05-09T10:02:08.237Z,19.66
2023-05-09T10:04:41.508Z,20.10
2023-05-09T10:07:12.869Z,20.55
2023-05-09T10:09:51.057Z,20.18
2023-05-09T10:12:24.768Z,19.97
2023-05-09T10:15:01.946Z,20.04
2023-05-09T10:17:29.590Z,20.33
2023-05-09T10:19:56.915Z,20.38
2023-05-09T10:22:30.205Z,20.30
2023-05-09T10:25:15.725Z,20.38
2023-05-09T10:27:46.277Z,20.74
2023-05-09T10:30:17.447Z,20.92
2023-05-09T10:33:00.801Z,20.56
2023-05-09T10:35:36.696Z,20.82
2023-05-09T10:38:11.193Z,20.75
2023-05-09T10:40:40.616Z,21.04
2023-05-09T10:43:10.376Z,20.89
2023-05-09T10:45:46.474Z,21.03
2023-05-09T10:48:16.723Z,21.12
2023-05-09T10:50:43.837Z,20.81
2023-05-09T10:53:21.698Z,21.05
2023-05-09T10:56:07.132Z,21.07
2023-05-09T10:58:47.641Z,20.96
2023-05-09T11:01:14.547Z,21.23
2023-05-09T11:04:17.391Z,21.37
2023-05-09T11:06:55.152Z,21.63
2023-05-09T11:09:25.221Z,21.69
2023-05-09T11:12:09.623Z,21.91
2023-05-09T11:14:36.381Z,21.97
2023-05-09T11:17:21.681Z,21.74
2023-05-09T11:19:51.346Z,21.99
2023-05-09T11:22:21.905Z,22.27
2023-05-09T11:24:51.995Z,22.02
2023-05-09T11:27:23.076Z,21.34
2023-05-09T11:29:59.676Z,21.90
2023-05-09T11:32:34.326Z,21.95
2023-05-09T11:35:09.560Z,22.04
2023-05-09T11:38:05.211Z,22.02
2023-05-09T11:40:35.374Z,22.11
2023-05-09T11:43:09.689Z,22.36
2023-05-09T11:45:39.940Z,22.08
2023-05-09T11:48:10.453Z,22.09
2023-05-09T11:50:41.729Z,21.81
2023-05-09T11:53:12.501Z,22.01
2023-05-09T11:55:41.283Z,21.53
2023-05-09T11:58:08.083Z,21.89
2023-05-09T12:00:55.184Z,21.59
2023-05-09T12:03:22.019Z,21.67
2023-05-09T12:05:49.146Z,21.50
2023-05-09T12:08:23.546Z,21.59
2023-05-09T12:10:50.509Z,21.52
2023-05-09T12:13:18.176Z,21.76
2023-05-09T12:15:45.191Z,21.88
2023-05-09T12:18:12.004Z,21.70
2023-05-09T12:20:42.431Z,21.73
2023-05-09T12:23:11.369Z,21.76
2023-05-09T12:25:47.484Z,21.73
2023-05-09T12:28:14.262Z,21.69
2023-05-09T12:30:40.965Z,21.94
2023-05-09T12:33:12.492Z,22.05
2023-05-09T12:35:48.798Z,21.99
2023-05-09T12:38:25.441Z,22.21
2023-05-09T12:41:15.486Z,21.68
2023-05-09T12:43:59.979Z,21.40
2023-05-09T12:46:39.897Z,21.85
2023-05-09T12:51:33.316Z,21.67
2023-05-09T12:54:17.386Z,21.68
2023-05-09T12:56:45.410Z,21.52
2023-05-09T12:59:14.997Z,21.61
2023-05-09T13:01:42.080Z,21.38
2023-05-09T13:04:10.534Z,21.62
2023-05-09T13:06:51.431Z,21.98
2023-05-09T13:09:18.929Z,22.18
2023-05-09T13:11:47.595Z,21.68
2023-05-09T13:14:15.270Z,21.86
2023-05-09T13:16:43.460Z,21.93
2023-05-09T13:19:10.941Z,21.88
2023-05-09T13:21:38.979Z,22.05
2023-05-09T13:24:06.338Z,21.89
2023-05-09T13:26:34.030Z,21.65
2023-05-09T13:29:00.901Z,21.63
2023-05-09T13:31:30.564Z,21.94
2023-05-09T13:34:04.884Z,21.94
2023-05-09T13:36:32.623Z,21.60
2023-05-09T13:38:59.370Z,21.52
2023-05-09T13:41:32.009Z,21.49
2023-05-09T13:43:59.956Z,21.10
2023-05-09T13:46:29.408Z,21.15
2023-05-09T13:49:04.629Z,21.49
2023-05-09T13:51:32.629Z,21.37
2023-05-09T13:54:02.454Z,21.55
2023-05-09T13:56:32.172Z,21.50
2023-05-09T13:59:08.065Z,21.56
2023-05-09T14:01:35.152Z,21.49
2023-05-09T14:04:02.488Z,21.61
2023-05-09T14:06:36.632Z,21.62
2023-05-09T14:09:04.562Z,21.60
2023-05-09T14:11:31.286Z,21.68
2023-05-09T14:14:09.154Z,21.32
2023-05-09T14:16:35.958Z,21.61
2023-05-09T14:19:02.714Z,21.70
2023-05-09T14:21:29.400Z,21.68
2023-05-09T14:24:03.911Z,21.42
2023-05-09T14:26:30.631Z,21.63
2023-05-09T14:28:59.812Z,21.53
2023-05-09T14:31:34.192Z,21.81
2023-05-09T14:34:01.027Z,22.17
2023-05-09T14:36:31.506Z,22.23
2023-05-09T14:39:01.324Z,22.27
2023-05-09T14:41:28.130Z,22.53
2023-05-09T14:44:02.146Z,22.07
2023-05-09T14:46:31.914Z,22.10
2023-05-09T14:49:04.020Z,21.71
2023-05-09T14:51:31.853Z,21.83
2023-05-09T14:54:02.557Z,21.79
2023-05-09T14:56:31.053Z,21.45
2023-05-09T14:59:00.625Z,21.49
2023-05-09T15:01:29.872Z,21.67
2023-05-09T15:04:06.091Z,21.86
2023-05-09T15:06:32.948Z,21.73
2023-05-09T15:09:02.719Z,21.82
2023-05-09T15:11:43.263Z,21.71
2023-05-09T15:14:14.032Z,21.84
2023-05-09T15:16:40.831Z,21.90
2023-05-09T15:19:08.401Z,21.70
2023-05-09T15:21:35.222Z,21.56
2023-05-09T15:24:02.521Z,21.46
2023-05-09T15:26:32.277Z,21.19
2023-05-09T15:29:02.303Z,21.23
2023-05-09T15:31:32.692Z,21.12
2023-05-09T15:34:05.622Z,20.80
2023-05-09T15:36:33.833Z,20.86
2023-05-09T15:39:05.136Z,20.85
2023-05-09T15:41:34.869Z,20.88
2023-05-09T15:44:01.493Z,20.79
2023-05-09T15:46:33.917Z,20.83
2023-05-09T15:49:08.222Z,20.56
2023-05-09T15:51:34.923Z,20.65
2023-05-09T15:54:01.641Z,20.70
2023-05-09T15:56:38.923Z,20.79
2023-05-09T15:59:05.705Z,20.72
2023-05-09T16:01:35.123Z,20.64
2023-05-09T16:04:02.286Z,20.60
2023-05-09T16:06:32.956Z,20.46
2023-05-09T16:08:59.703Z,20.41
2023-05-09T16:11:28.521Z,20.42
2023-05-09T16:13:58.347Z,20.43
2023-05-09T16:16:26.604Z,20.40
2023-05-09T16:18:53.471Z,20.50
2023-05-09T16:21:21.700Z,20.50
2023-05-09T16:23:58.480Z,20.62
2023-05-09T16:26:26.281Z,20.56
2023-05-09T16:28:53.199Z,20.46
2023-05-09T16:31:21.472Z,20.43
2023-05-09T16:33:48.857Z,20.42
2023-05-09T16:36:15.824Z,20.44
2023-05-09T16:38:42.497Z,20.49
2023-05-09T16:41:09.179Z,20.42
2023-05-09T16:43:35.978Z,20.41
2023-05-09T16:46:02.728Z,20.30
2023-05-09T16:48:35.438Z,20.23
2023-05-09T16:51:02.123Z,20.16
2023-05-09T16:53:29.181Z,20.07
2023-05-09T16:55:55.946Z,19.93
2023-05-09T16:58:23.244Z,19.87
2023-05-09T17:00:50.963Z,19.79
2023-05-09T17:03:17.858Z,19.73
2023-05-09T17:05:53.182Z,19.71
2023-05-09T17:08:22.480Z,19.55
2023-05-09T17:10:50.032Z,19.41
2023-05-09T17:13:17.564Z,19.45
2023-05-09T17:15:44.488Z,19.46
2023-05-09T17:18:17.042Z,19.47
2023-05-09T17:20:46.203Z,19.41
2023-05-09T17:23:13.200Z,19.46
2023-05-09T17:25:39.900Z,19.40
2023-05-09T17:28:08.698Z,19.46
2023-05-09T17:30:39.621Z,19.29
2023-05-09T17:33:06.386Z,19.04
2023-05-09T17:35:39.744Z,19.06
2023-05-09T17:38:06.493Z,19.18
2023-05-09T17:40:33.347Z,18.89
2023-05-09T17:43:03.154Z,18.86
2023-05-09T17:45:33.109Z,18.76
2023-05-09T17:48:01.608Z,18.70
2023-05-09T17:50:28.708Z,18.59
2023-05-09T17:52:58.064Z,18.57
2023-05-09T17:55:48.104Z,18.50
2023-05-09T17:58:17.172Z,18.33
2023-05-09T18:00:44.644Z,18.11
2023-05-09T18:03:13.633Z,17.96
2023-05-09T18:05:49.568Z,17.88
2023-05-09T18:08:16.869Z,17.95
2023-05-09T18:10:43.827Z,17.76
2023-05-09T18:13:19.053Z,17.64
2023-05-09T18:15:45.892Z,17.56
2023-05-09T18:18:16.008Z,17.46
2023-05-09T18:20:51.067Z,17.34
2023-05-09T18:23:34.123Z,17.39
2023-05-09T18:26:16.735Z,17.81
2023-05-09T18:31:49.281Z,17.59
2023-05-09T18:34:18.752Z,17.48
2023-05-09T18:36:59.959Z,17.43
2023-05-09T18:39:55.561Z,17.57
2023-05-09T18:42:43.904Z,17.71
2023-05-09T18:45:11.561Z,17.49
2023-05-09T18:47:46.069Z,17.56
2023-05-09T18:53:36.295Z,17.38
2023-05-09T18:56:06.103Z,17.14
2023-05-09T18:58:36.793Z,16.98
2023-05-09T19:01:11.651Z,16.82
2023-05-09T19:03:53.088Z,16.75
2023-05-09T19:06:20.283Z,16.69
2023-05-09T19:08:47.792Z,16.63
2023-05-09T19:11:22.545Z,16.77
2023-05-09T19:13:49.736Z,16.73
2023-05-09T19:16:18.784Z,16.77
2023-05-09T19:18:51.645Z,16.65
2023-05-09T19:21:18.886Z,16.50
2023-05-09T19:23:49.098Z,16.29
2023-05-09T19:29:08.546Z,16.18
2023-05-09T19:31:37.120Z,16.17
2023-05-09T19:34:03.925Z,16.13
2023-05-09T19:36:31.056Z,16.10
2023-05-09T19:39:08.709Z,16.06
2023-05-09T19:41:35.616Z,16.05
2023-05-09T19:44:04.377Z,16.01
2023-05-09T19:46:33.811Z,15.93
2023-05-09T19:49:00.932Z,15.90
2023-05-09T19:51:28.045Z,15.84
2023-05-09T19:53:54.752Z,15.80
2023-05-09T19:56:31.298Z,15.75
2023-05-09T19:58:57.983Z,15.72
2023-05-09T20:01:31.449Z,15.74
2023-05-09T20:04:00.778Z,15.69
2023-05-09T20:06:27.650Z,15.71
2023-05-09T20:08:55.783Z,15.70
2023-05-09T20:11:26.687Z,15.74
2023-05-09T20:13:53.606Z,15.71
2023-05-09T20:16:21.302Z,15.70
2023-05-09T20:18:50.711Z,15.64
2023-05-09T20:21:18.872Z,15.59
2023-05-09T20:23:46.109Z,15.56
2023-05-09T20:26:13.068Z,15.49
2023-05-09T20:28:39.792Z,15.41
2023-05-09T20:31:06.620Z,15.36
2023-05-09T20:33:33.443Z,15.29
2023-05-09T20:36:09.595Z,15.26
2023-05-09T20:38:36.452Z,15.23
2023-05-09T20:41:04.078Z,15.17
2023-05-09T20:43:38.462Z,15.11
2023-05-09T20:46:05.427Z,15.11
2023-05-09T20:48:32.492Z,15.13
2023-05-09T20:50:59.181Z,15.15
2023-05-09T20:53:27.683Z,15.10
2023-05-09T20:55:54.508Z,15.12
2023-05-09T20:58:21.309Z,15.07
2023-05-09T21:00:48.525Z,15.05
2023-05-09T21:03:15.547Z,15.00
2023-05-09T21:05:42.367Z,14.94
2023-05-09T21:08:09.058Z,14.86
2023-05-09T21:10:38.480Z,14.83
2023-05-09T21:13:05.172Z,14.79
2023-05-09T21:15:31.976Z,14.69
2023-05-09T21:17:58.830Z,14.62
2023-05-09T21:20:30.975Z,14.63
2023-05-09T21:22:57.637Z,14.54
2023-05-09T21:25:24.449Z,14.49
2023-05-09T21:27:51.093Z,14.47
2023-05-09T21:30:18.022Z,14.48
2023-05-09T21:32:45.044Z,14.44
2023-05-09T21:35:15.459Z,14.48
2023-05-09T21:37:42.584Z,14.41
2023-05-09T21:40:10.255Z,14.34
2023-05-09T21:42:37.733Z,14.32
2023-05-09T21:45:13.043Z,14.31
2023-05-09T21:47:40.267Z,14.25
2023-05-09T21:50:07.379Z,14.24
2023-05-09T21:52:36.465Z,14.20
2023-05-09T21:55:03.444Z,14.11
2023-05-09T21:57:30.099Z,14.09
2023-05-09T22:00:07.906Z,14.06
2023-05-09T22:02:41.016Z,14.02
2023-05-09T22:05:08.163Z,14.09
2023-05-09T22:07:38.442Z,14.06
2023-05-09T22:10:05.947Z,13.98
2023-05-09T22:12:33.639Z,13.96
2023-05-09T22:15:00.297Z,13.91
2023-05-09T22:17:27.104Z,13.90
2023-05-09T22:19:59.238Z,13.88
2023-05-09T22:22:27.045Z,13.85
2023-05-09T22:24:53.821Z,13.81
2023-05-09T22:27:32.241Z,13.77
2023-05-09T22:29:59.065Z,13.75
2023-05-09T22:32:25.779Z,13.75
2023-05-09T22:35:03.245Z,13.72
2023-05-09T22:37:29.889Z,13.68
2023-05-09T22:39:56.614Z,13.72
2023-05-09T22:42:23.268Z,13.71
2023-05-09T22:44:50.029Z,13.75
2023-05-09T22:47:21.994Z,13.77
2023-05-09T22:49:49.858Z,13.76
2023-05-09T22:52:17.123Z,13.74
2023-05-09T22:54:53.708Z,13.74
2023-05-09T22:57:20.607Z,13.74
2023-05-09T22:59:49.708Z,13.76
2023-05-09T23:02:22.258Z,13.76
2023-05-09T23:04:51.268Z,13.79
2023-05-09T23:07:18.001Z,13.83
2023-05-09T23:09:49.582Z,13.82
2023-05-09T23:12:18.509Z,13.77
2023-05-09T23:14:45.241Z,13.76
2023-05-09T23:17:12.014Z,13.71
2023-05-09T23:19:38.676Z,13.65
2023-05-09T23:22:08.085Z,13.61
2023-05-09T23:24:35.565Z,13.56
2023-05-09T23:27:05.468Z,13.54
2023-05-09T23:29:33.287Z,13.50
2023-05-09T23:31:59.965Z,13.49
2023-05-09T23:34:26.723Z,13.46
2023-05-09T23:36:53.723Z,13.43
2023-05-09T23:39:20.633Z,13.39
2023-05-09T23:41:47.285Z,13.36
2023-05-09T23:44:13.832Z,13.34
2023-05-09T23:46:46.041Z,13.33
2023-05-09T23:49:14.583Z,13.30
2023-05-09T23:51:41.338Z,13.30
2023-05-09T23:54:08.367Z,13.32
2023-05-09T23:56:36.498Z,13.32
2023-05-09T23:59:11.497Z,13.30
